Погода Белый Ключна 2 недели

Пензенская область, Россия

27 мая-09 июня
  • 27мая
    Сегодня
    +7°
    +18°
    Ясно и безоблачно
    ВремяПогодаТемператураВлажностьДавлениеВетер, м/сВероятность осадков
    00:00Ясно и безоблачно+10°C56 %751 мм3.4 м/с2 %
    03:00Ясно и безоблачно+7°C64 %752 мм2.1 м/с2 %
    06:00Ясно и безоблачно+10°C63 %753 мм2.3 м/с2 %
    09:00Ясно и безоблачно+15°C39 %754 мм4.0 м/с2 %
    12:00Ясно и безоблачно+17°C36 %754 мм4.3 м/с2 %
    15:00Ясно и безоблачно+18°C34 %753 мм3.7 м/с2 %
    18:00Ясно и безоблачно+17°C37 %753 мм3.2 м/с2 %
    21:00Ясно и безоблачно+12°C58 %753 мм2.0 м/с2 %
  • 28мая
    Вторник
    +9°
    +23°
    Ясно и безоблачно
    ВремяПогодаТемператураВлажностьДавлениеВетер, м/сВероятность осадков
    00:00Ясно и безоблачно+9°C64 %753 мм2.1 м/с2 %
    03:00Ясно и безоблачно+7°C72 %753 мм1.5 м/с2 %
    06:00Ясно и безоблачно+11°C64 %753 мм2.0 м/с2 %
    09:00Ясно и безоблачно+18°C42 %753 мм3.4 м/с2 %
    12:00Ясно и безоблачно+21°C35 %752 мм3.9 м/с2 %
    15:00Ясно и безоблачно+22°C33 %751 мм3.9 м/с2 %
    18:00Ясно и безоблачно+22°C38 %750 мм3.7 м/с2 %
    21:00Ясно и безоблачно+15°C57 %749 мм2.7 м/с2 %
  • 29мая
    Среда
    +12°
    +26°
    Ясно и безоблачно
    ВремяПогодаТемператураВлажностьДавлениеВетер, м/сВероятность осадков
    00:00Ясно и безоблачно+12°C65 %749 мм2.5 м/с2 %
    03:00Ясно и безоблачно+10°C72 %748 мм1.7 м/с2 %
    06:00Ясно и безоблачно+14°C62 %748 мм2.0 м/с2 %
    09:00Ясно и безоблачно+21°C39 %748 мм3.5 м/с2 %
    12:00Ясно и безоблачно+25°C32 %747 мм4.2 м/с2 %
    15:00Ясно и безоблачно+25°C29 %746 мм4.0 м/с2 %
    18:00Ясно и безоблачно+25°C39 %745 мм3.4 м/с2 %
    21:00Ясно и безоблачно+18°C59 %745 мм2.2 м/с2 %
  • 30мая
    Четверг
    +13°
    +27°
    Практически безоблачно
    ВремяПогодаТемператураВлажностьДавлениеВетер, м/сВероятность осадков
    00:00Ясно и безоблачно+15°C62 %745 мм2.8 м/с2 %
    03:00Ясно и безоблачно+13°C65 %745 мм2.1 м/с2 %
    06:00Ясно и безоблачно+17°C60 %745 мм1.4 м/с2 %
    09:00Ясно и безоблачно+23°C39 %745 мм3.0 м/с2 %
    12:00Ясно и безоблачно+27°C31 %745 мм3.8 м/с2 %
    15:00Практически безоблачно+27°C30 %744 мм3.5 м/с5 %
    18:00Ясно и безоблачно+26°C35 %743 мм3.0 м/с5 %
    21:00Ясно и безоблачно+20°C44 %744 мм2.1 м/с2 %
  • 31мая
    Пятница
    +14°
    +28°
    Небольшая облачность
    ВремяПогодаТемператураВлажностьДавлениеВетер, м/сВероятность осадков
    00:00Ясно и безоблачно+16°C47 %743 мм2.6 м/с2 %
    03:00Ясно и безоблачно+14°C64 %743 мм1.6 м/с4 %
    06:00Ясно и безоблачно+18°C58 %744 мм1.2 м/с2 %
    09:00Практически безоблачно+24°C36 %744 мм2.4 м/с3 %
    12:00Ясно и безоблачно+27°C26 %744 мм3.3 м/с7 %
    15:00Небольшая облачность+28°C22 %743 мм3.3 м/с18 %
    18:00Небольшая облачность+27°C33 %743 мм4.3 м/с13 %
    21:00Ясно и безоблачно+21°C60 %744 мм2.9 м/с2 %
Мы используем cookies
Соглашаюсь